Bedford, IN

5:20 AM EST on February 22, 2017 (GMT -0500)
Edgewood Addition | | Change Station
Active Advisory: Special Statement

Elev 666 ft 38.86 °N, 86.50 °W | Updated 8 seconds ago

Overcast
Overcast
54.0 °F
Feels Like 54.0 °F
N
0.0
Wind Variable Wind from SSE
Gusts 2.0 mph

Today
High -- | Low -- °F
--% Chance of Precip.
Yesterday
High -- | Low -- °F
Precip. -- in
Pressure 29.89 in
Visibility 5.0 miles
Clouds Few 1000 ft
Mostly Cloudy 6500 ft
Dew Point 53 °F
Humidity 97%
Rainfall 0.00 in
Snow Depth Not available.
7:27 AM 6:31 PM
Waning Crescent, 18% visible
METAR KBMG 220953Z AUTO 00000KT 5SM BR FEW010 BKN065 12/11 A2989 RMK AO2 SLP120 T01220106
Pressure 29.89 in
Visibility 5.0 miles
Clouds Few 1000 ft
Mostly Cloudy 6500 ft
Dew Point 53 °F
Humidity 97%
Rainfall 0.00 in
Snow Depth Not available.
7:27 AM 6:31 PM
Waning Crescent, 18% visible
METAR KBMG 220953Z AUTO 00000KT 5SM BR FEW010 BKN065 12/11 A2989 RMK AO2 SLP120 T01220106

Get Your Daily Forecast Email!

Thanks for signing up!

Be on the lookout for a verification email in your inbox.

You'll start receiving the daily forecast at 8 AM.

×

10-Day Weather Forecast

Almanac

Astronomy

Feb. 22, 2017 Rise Set
Actual Time
Civil Twilight
Nautical Twilight
Astronomical Twilight
Moon
Length of Visible Light
Length of Day
Tomorrow will be .
, % of the Moon is Illuminated

Today's Extremes

State Highs State Lows

Community

WunderPhotos

Upload Photos

1,962,540 photos uploaded!

WunderBlog® & News

Nearby

Air Quality

  Air Quality AQ Index Pollutant
Not available.

Snow Depth

Station Depth Elevation

Earthquake Activity

City Distance Mag. Time & Date
Minimum magnitude displayed is 2.5.

Coastal Water Temperatures

Place Temperature

Stations

Nearby Weather Stations

Station Location Temp. Windchill Dew Point Humidity Wind Precip. Elev Updated Type
                   

Watches & Warnings

Special Statement
Issued: 5:17 AM EST Feb. 22, 2017 – National Weather Service

... Locally dense fog this morning...

Patchy dense fog will continue to develop across the area this
morning. Visibility will drop to around a quarter of a mile at
some locations. Fog will lift by mid morning.

If traveling, use caution and be alert for rapidly changing
visibilities.


50